createdAt,value
2017-05-27T00:00:45.326Z,0
2017-05-27T00:01:54.215Z,0
2017-05-27T00:03:03.486Z,0
2017-05-27T00:04:12.703Z,0
2017-05-27T00:05:22.573Z,0
2017-05-27T00:06:31.471Z,0
2017-05-27T00:07:40.689Z,0
2017-05-27T00:08:50.559Z,0
2017-05-27T00:09:59.789Z,0
2017-05-27T00:11:09.011Z,0
2017-05-27T00:12:17.903Z,0
2017-05-27T00:13:27.120Z,0
2017-05-27T00:14:36.168Z,0
2017-05-27T00:15:45.710Z,0
2017-05-27T00:16:54.603Z,0
2017-05-27T00:18:04.147Z,0
2017-05-27T00:19:13.039Z,0
2017-05-27T00:20:22.151Z,0
2017-05-27T00:21:31.695Z,0
2017-05-27T00:22:40.919Z,0
2017-05-27T00:23:50.794Z,0
2017-05-27T00:25:00.348Z,0
2017-05-27T00:26:09.717Z,0
2017-05-27T00:27:18.943Z,0
2017-05-27T00:28:28.495Z,0
2017-05-27T00:29:38.039Z,0
2017-05-27T00:30:47.257Z,0
2017-05-27T00:31:56.450Z,0
2017-05-27T00:33:05.345Z,0
2017-05-27T00:34:14.902Z,0
2017-05-27T00:35:24.447Z,0
2017-05-27T00:36:33.665Z,0
2017-05-27T00:37:43.187Z,0
2017-05-27T00:38:52.732Z,0
2017-05-27T00:40:02.276Z,0
2017-05-27T00:41:11.825Z,0
2017-05-27T00:42:20.718Z,0
2017-05-27T00:43:29.764Z,0
2017-05-27T00:44:38.715Z,0
2017-05-27T00:45:48.258Z,0
2017-05-27T00:46:57.152Z,0
2017-05-27T00:48:06.709Z,0
2017-05-27T00:49:16.732Z,0
2017-05-27T00:50:25.623Z,0
2017-05-27T00:51:34.841Z,0
2017-05-27T00:52:44.386Z,0
2017-05-27T00:53:53.608Z,0
2017-05-27T00:55:02.812Z,0
2017-05-27T00:56:12.026Z,0
2017-05-27T00:57:21.628Z,0
2017-05-27T00:58:31.178Z,0
2017-05-27T00:59:40.722Z,0
2017-05-27T01:00:49.614Z,0
2017-05-27T01:01:58.841Z,0
2017-05-27T01:03:08.055Z,0
2017-05-27T01:04:16.947Z,0
2017-05-27T01:05:25.840Z,0
2017-05-27T01:06:34.831Z,0
2017-05-27T01:07:43.725Z,0
2017-05-27T01:08:53.276Z,0
2017-05-27T01:10:02.515Z,0
2017-05-27T01:11:11.406Z,0
2017-05-27T01:12:20.455Z,0
2017-05-27T01:13:30.006Z,0
2017-05-27T01:14:39.224Z,0
2017-05-27T01:15:48.115Z,0
2017-05-27T01:16:57.014Z,0
2017-05-27T01:18:06.561Z,0
2017-05-27T01:19:15.458Z,0
2017-05-27T01:20:24.679Z,0
2017-05-27T01:21:34.217Z,0
2017-05-27T01:22:43.431Z,0
2017-05-27T01:23:52.376Z,0
2017-05-27T01:25:01.592Z,0
2017-05-27T01:26:10.485Z,0
2017-05-27T01:27:20.030Z,0
2017-05-27T01:28:29.571Z,0
2017-05-27T01:29:38.935Z,0
2017-05-27T01:30:47.829Z,0
2017-05-27T01:31:57.049Z,0
2017-05-27T01:33:06.271Z,0
2017-05-27T01:34:15.164Z,0
2017-05-27T01:35:25.190Z,0
2017-05-27T01:36:34.731Z,0
2017-05-27T01:37:45.251Z,0
2017-05-27T01:38:54.147Z,0
2017-05-27T01:40:03.364Z,0
2017-05-27T01:41:12.630Z,0
2017-05-27T01:42:21.526Z,0
2017-05-27T01:43:30.739Z,0
2017-05-27T01:44:40.294Z,0
2017-05-27T01:45:49.519Z,0
2017-05-27T01:46:58.508Z,0
2017-05-27T01:48:07.402Z,0
2017-05-27T01:49:16.947Z,0
2017-05-27T01:50:25.837Z,0
2017-05-27T01:51:35.062Z,0
2017-05-27T01:52:44.381Z,0
2017-05-27T01:53:53.922Z,0
2017-05-27T01:55:03.142Z,0
2017-05-27T01:56:12.051Z,0
2017-05-27T01:57:20.940Z,0
2017-05-27T01:58:30.155Z,0
2017-05-27T01:59:39.048Z,0
2017-05-27T02:00:48.265Z,0
2017-05-27T02:01:57.525Z,0
2017-05-27T02:03:06.742Z,0
2017-05-27T02:04:15.957Z,0
2017-05-27T02:05:25.176Z,0
2017-05-27T02:06:34.072Z,0
2017-05-27T02:07:43.289Z,0
2017-05-27T02:08:52.187Z,0
2017-05-27T02:10:01.833Z,0
2017-05-27T02:11:11.051Z,0
2017-05-27T02:12:19.939Z,0
2017-05-27T02:13:29.503Z,0
2017-05-27T02:14:38.721Z,0
2017-05-27T02:15:47.663Z,0
2017-05-27T02:16:56.556Z,0
2017-05-27T02:18:05.778Z,0
2017-05-27T02:19:14.676Z,0
2017-05-27T02:20:23.894Z,0
2017-05-27T02:21:32.884Z,0
2017-05-27T02:22:41.771Z,0
2017-05-27T02:23:50.671Z,0
2017-05-27T02:24:59.896Z,0
2017-05-27T02:26:09.117Z,0
2017-05-27T02:27:18.164Z,0
2017-05-27T02:28:27.712Z,4
2017-05-27T02:29:36.928Z,4
2017-05-27T02:30:46.146Z,4
2017-05-27T02:31:55.367Z,0
2017-05-27T02:33:04.260Z,4
2017-05-27T02:34:13.155Z,4
2017-05-27T02:35:22.385Z,4
2017-05-27T02:36:31.274Z,4
2017-05-27T02:37:40.490Z,4
2017-05-27T02:38:49.857Z,4
2017-05-27T02:39:58.746Z,8
2017-05-27T02:41:07.967Z,8
2017-05-27T02:42:17.179Z,8
2017-05-27T02:43:26.074Z,12
2017-05-27T02:44:35.448Z,12
2017-05-27T02:45:44.671Z,12
2017-05-27T02:46:53.561Z,12
2017-05-27T02:48:02.450Z,16
2017-05-27T02:49:12.010Z,16
2017-05-27T02:50:21.706Z,24
2017-05-27T02:51:30.927Z,28
2017-05-27T02:52:39.820Z,32
2017-05-27T02:53:49.038Z,32
2017-05-27T02:54:57.929Z,36
2017-05-27T02:56:07.178Z,40
2017-05-27T02:57:16.067Z,44
2017-05-27T02:58:25.279Z,52
2017-05-27T02:59:34.498Z,60
2017-05-27T03:00:43.389Z,68
2017-05-27T03:01:52.535Z,76
2017-05-27T03:03:01.439Z,84
2017-05-27T03:04:10.657Z,96
2017-05-27T03:05:19.897Z,100
2017-05-27T03:06:29.123Z,116
2017-05-27T03:07:38.392Z,124
2017-05-27T03:08:47.610Z,136
2017-05-27T03:09:57.151Z,152
2017-05-27T03:11:06.045Z,160
2017-05-27T03:12:14.960Z,176
2017-05-27T03:13:24.329Z,188
2017-05-27T03:14:33.225Z,204
2017-05-27T03:15:42.765Z,220
2017-05-27T03:16:52.307Z,236
2017-05-27T03:18:02.188Z,252
2017-05-27T03:19:11.705Z,272
2017-05-27T03:20:20.603Z,292
2017-05-27T03:21:29.823Z,304
2017-05-27T03:22:38.717Z,328
2017-05-27T03:23:47.612Z,344
2017-05-27T03:24:56.888Z,364
2017-05-27T03:26:05.788Z,384
2017-05-27T03:27:15.022Z,404
2017-05-27T03:28:23.914Z,424
2017-05-27T03:29:33.217Z,448
2017-05-27T03:30:42.865Z,468
2017-05-27T03:31:52.435Z,488
2017-05-27T03:33:01.330Z,508
2017-05-27T03:34:10.237Z,532
2017-05-27T03:35:19.799Z,552
2017-05-27T03:36:29.024Z,576
2017-05-27T03:37:38.573Z,600
2017-05-27T03:38:47.788Z,616
2017-05-27T03:39:57.333Z,640
2017-05-27T03:41:07.206Z,664
2017-05-27T03:42:16.198Z,684
2017-05-27T03:43:25.792Z,708
2017-05-27T03:44:35.010Z,728
2017-05-27T03:45:44.553Z,748
2017-05-27T03:46:53.443Z,768
2017-05-27T03:48:02.336Z,788
2017-05-27T03:49:11.554Z,808
2017-05-27T03:50:20.478Z,828
2017-05-27T03:51:29.382Z,844
2017-05-27T03:52:38.926Z,868
2017-05-27T03:53:48.469Z,888
2017-05-27T03:54:57.686Z,904
2017-05-27T03:56:06.904Z,924
2017-05-27T03:57:16.122Z,940
2017-05-27T03:58:25.339Z,960
2017-05-27T03:59:34.762Z,976
2017-05-27T04:00:43.983Z,996
2017-05-27T04:01:53.526Z,1012
2017-05-27T04:03:02.763Z,1032
2017-05-27T04:04:11.664Z,1044
2017-05-27T04:05:21.026Z,1060
2017-05-27T04:06:30.246Z,1080
2017-05-27T04:07:39.137Z,1092
2017-05-27T04:08:48.034Z,1108
2017-05-27T04:09:56.930Z,1124
2017-05-27T04:11:06.309Z,1136
2017-05-27T04:12:15.525Z,1152
2017-05-27T04:13:24.740Z,1168
2017-05-27T04:14:33.638Z,1180
2017-05-27T04:15:43.177Z,1192
2017-05-27T04:16:52.219Z,1204
2017-05-27T04:18:01.769Z,1220
2017-05-27T04:19:10.988Z,1232
2017-05-27T04:20:20.203Z,1244
2017-05-27T04:21:29.103Z,1256
2017-05-27T04:22:38.471Z,1268
2017-05-27T04:23:47.360Z,1280
2017-05-27T04:24:56.258Z,1292
2017-05-27T04:26:05.475Z,1304
2017-05-27T04:27:14.367Z,1316
2017-05-27T04:28:23.406Z,1332
2017-05-27T04:29:32.630Z,1340
2017-05-27T04:30:41.520Z,1352
2017-05-27T04:31:50.740Z,1360
2017-05-27T04:32:59.958Z,1372
2017-05-27T04:34:09.829Z,1380
2017-05-27T04:35:19.050Z,1388
2017-05-27T04:36:28.268Z,1400
2017-05-27T04:37:37.168Z,1408
2017-05-27T04:38:46.410Z,1416
2017-05-27T04:39:55.783Z,1424
2017-05-27T04:41:04.675Z,1436
2017-05-27T04:42:13.890Z,1440
2017-05-27T04:43:22.785Z,1452
2017-05-27T04:44:32.332Z,1456
2017-05-27T04:45:41.375Z,1468
2017-05-27T04:46:50.269Z,1476
2017-05-27T04:47:59.162Z,1480
2017-05-27T04:49:08.058Z,1488
2017-05-27T04:50:16.957Z,1496
2017-05-27T04:51:26.056Z,1500
2017-05-27T04:52:34.949Z,1508
2017-05-27T04:53:43.848Z,1512
2017-05-27T04:54:53.395Z,1524
2017-05-27T04:56:02.289Z,1532
2017-05-27T04:57:11.509Z,1536
2017-05-27T04:58:21.379Z,1540
2017-05-27T04:59:30.600Z,1548
2017-05-27T05:00:39.494Z,1556
2017-05-27T05:01:48.709Z,1560
2017-05-27T05:02:58.136Z,1568
2017-05-27T05:04:07.029Z,1572
2017-05-27T05:05:16.249Z,1576
2017-05-27T05:06:25.468Z,1584
2017-05-27T05:07:34.362Z,1588
2017-05-27T05:08:43.627Z,1592
2017-05-27T05:09:52.848Z,1600
2017-05-27T05:11:02.718Z,1604
2017-05-27T05:12:11.936Z,1608
2017-05-27T05:13:20.830Z,1616
2017-05-27T05:14:30.206Z,1616
2017-05-27T05:15:39.767Z,1624
2017-05-27T05:16:49.312Z,1628
2017-05-27T05:17:58.528Z,1632
2017-05-27T05:19:07.758Z,1636
2017-05-27T05:20:17.405Z,1644
2017-05-27T05:21:26.621Z,1652
2017-05-27T05:24:16.789Z,1656
2017-05-27T05:25:26.581Z,1660
2017-05-27T05:26:35.477Z,1664
2017-05-27T05:27:44.702Z,1668
2017-05-27T05:28:53.918Z,1672
2017-05-27T05:30:02.818Z,1676
2017-05-27T05:31:12.186Z,1676
2017-05-27T05:32:21.409Z,1680
2017-05-27T05:33:30.641Z,1684
2017-05-27T05:34:40.187Z,1688
2017-05-27T05:35:49.734Z,1692
2017-05-27T05:36:59.256Z,1696
2017-05-27T05:38:08.157Z,1700
2017-05-27T05:39:17.703Z,1700
2017-05-27T05:40:26.921Z,1704
2017-05-27T05:41:35.810Z,1708
2017-05-27T05:42:45.611Z,1708
2017-05-27T05:43:54.838Z,1712
2017-05-27T05:45:04.059Z,1716
2017-05-27T05:46:12.952Z,1720
2017-05-27T05:47:22.179Z,1720
2017-05-27T05:48:32.205Z,1720
2017-05-27T05:49:41.097Z,1720
2017-05-27T05:50:50.642Z,1724
2017-05-27T05:51:59.533Z,1728
2017-05-27T05:53:08.434Z,1732
2017-05-27T05:54:17.806Z,1736
2017-05-27T05:55:27.351Z,1736
2017-05-27T05:56:36.568Z,1736
2017-05-27T05:57:45.790Z,1740
2017-05-27T05:58:55.010Z,1740
2017-05-27T06:00:04.709Z,1744
2017-05-27T06:01:13.610Z,1744
2017-05-27T06:02:22.831Z,1752
2017-05-27T06:03:32.377Z,1756
2017-05-27T06:04:41.928Z,1760
2017-05-27T06:05:51.852Z,1760
2017-05-27T06:07:01.075Z,1756
2017-05-27T06:08:10.297Z,1776
2017-05-27T06:09:19.195Z,1768
2017-05-27T06:10:28.086Z,1768
2017-05-27T06:11:37.133Z,1768
2017-05-27T06:12:46.682Z,1772
2017-05-27T06:13:55.575Z,1776
2017-05-27T06:15:05.123Z,1776
2017-05-27T06:16:14.017Z,1776
2017-05-27T06:17:23.385Z,1784
2017-05-27T06:18:32.607Z,1780
2017-05-27T06:19:41.507Z,1784
2017-05-27T06:20:50.734Z,1788
2017-05-27T06:21:59.959Z,1788
2017-05-27T06:23:09.504Z,1792
2017-05-27T06:24:18.725Z,1792
2017-05-27T06:25:27.946Z,1800
2017-05-27T06:26:36.837Z,1800
2017-05-27T06:27:45.734Z,1800
2017-05-27T06:28:55.009Z,1804
2017-05-27T06:30:04.550Z,1800
2017-05-27T06:31:13.496Z,1800
2017-05-27T06:32:22.723Z,1804
2017-05-27T06:33:32.271Z,1804
2017-05-27T06:34:41.607Z,1812
2017-05-27T06:35:51.158Z,1816
2017-05-27T06:37:00.052Z,1812
2017-05-27T06:38:09.631Z,1816
2017-05-27T06:39:19.503Z,1820
2017-05-27T06:40:28.500Z,1824
2017-05-27T06:41:37.397Z,1820
2017-05-27T06:42:46.627Z,1828
2017-05-27T06:43:55.851Z,1824
2017-05-27T06:45:05.396Z,1832
2017-05-27T06:46:14.445Z,1832
2017-05-27T06:47:23.668Z,1836
2017-05-27T06:48:32.886Z,1832
2017-05-27T06:49:42.115Z,1832
2017-05-27T06:50:51.337Z,1840
2017-05-27T06:52:00.889Z,1848
2017-05-27T06:53:10.114Z,1844
2017-05-27T06:54:19.335Z,1840
2017-05-27T06:55:28.228Z,1848
2017-05-27T06:56:37.456Z,1848
2017-05-27T06:57:46.832Z,1856
2017-05-27T06:58:56.066Z,1860
2017-05-27T07:00:05.287Z,1852
2017-05-27T07:01:14.186Z,1856
2017-05-27T07:02:23.408Z,1860
2017-05-27T07:03:32.784Z,1864
2017-05-27T07:04:41.681Z,1872
2017-05-27T07:05:51.550Z,1872
2017-05-27T07:07:00.443Z,1884
2017-05-27T07:08:09.343Z,1884
2017-05-27T07:09:18.720Z,1884
2017-05-27T07:10:27.954Z,1884
2017-05-27T07:11:36.848Z,1880
2017-05-27T07:12:45.754Z,1884
2017-05-27T07:13:55.623Z,1888
2017-05-27T07:15:04.722Z,1892
2017-05-27T07:16:13.622Z,1892
2017-05-27T07:17:22.844Z,1896
2017-05-27T07:18:32.069Z,1896
2017-05-27T07:19:41.291Z,1896
2017-05-27T07:20:50.442Z,1904
2017-05-27T07:21:59.993Z,1904
2017-05-27T07:23:09.218Z,1908
2017-05-27T07:24:18.168Z,1916
2017-05-27T07:25:27.066Z,1912
2017-05-27T07:26:36.014Z,1916
2017-05-27T07:27:45.558Z,1924
2017-05-27T07:28:54.461Z,1924
2017-05-27T07:30:04.341Z,1924
2017-05-27T07:31:13.563Z,1928
2017-05-27T07:32:23.265Z,1940
2017-05-27T07:33:32.486Z,1936
2017-05-27T07:34:41.712Z,1940
2017-05-27T07:35:51.261Z,1940
2017-05-27T07:37:00.480Z,1936
2017-05-27T07:38:09.380Z,1944
2017-05-27T07:39:18.605Z,1960
2017-05-27T07:40:27.827Z,1964
2017-05-27T07:41:37.046Z,1968
2017-05-27T07:42:46.601Z,1964
2017-05-27T07:43:55.497Z,1960
2017-05-27T07:45:04.397Z,1960
2017-05-27T07:46:13.288Z,1968
2017-05-27T07:47:22.514Z,1976
2017-05-27T07:48:32.063Z,1976
2017-05-27T07:49:41.435Z,1976
2017-05-27T07:50:50.334Z,1976
2017-05-27T07:51:59.554Z,1980
2017-05-27T07:53:08.774Z,1988
2017-05-27T07:54:18.321Z,1996
2017-05-27T07:55:27.850Z,1988
2017-05-27T07:56:36.750Z,1992
2017-05-27T07:57:45.975Z,1992
2017-05-27T07:58:55.200Z,1996
2017-05-27T08:00:04.101Z,2000
2017-05-27T08:01:13.150Z,1992
2017-05-27T08:02:22.053Z,2000
2017-05-27T08:03:31.282Z,2000
2017-05-27T08:04:40.504Z,2012
2017-05-27T08:05:49.401Z,2012
2017-05-27T08:06:58.355Z,2016
2017-05-27T08:08:07.903Z,2016
2017-05-27T08:09:16.803Z,2028
2017-05-27T08:10:25.702Z,2032
2017-05-27T08:11:34.597Z,2044
2017-05-27T08:12:43.545Z,2048
2017-05-27T08:13:52.447Z,2056
2017-05-27T08:15:01.672Z,2056
2017-05-27T08:16:10.567Z,2072
2017-05-27T08:17:19.466Z,2068
2017-05-27T08:18:28.688Z,2072
2017-05-27T08:19:38.888Z,2084
2017-05-27T08:20:47.782Z,2092
2017-05-27T08:21:56.683Z,2100
2017-05-27T08:23:06.232Z,2116
2017-05-27T08:24:15.854Z,2128
2017-05-27T08:25:25.080Z,2132
2017-05-27T08:26:34.301Z,2136
2017-05-27T08:27:43.849Z,2148
2017-05-27T08:28:53.079Z,2152
2017-05-27T08:30:02.447Z,2140
2017-05-27T08:31:11.369Z,2160
2017-05-27T08:32:20.273Z,2160
2017-05-27T08:33:30.158Z,2168
2017-05-27T08:34:39.708Z,2164
2017-05-27T08:35:48.936Z,2160
2017-05-27T08:36:57.895Z,2168
2017-05-27T08:38:07.114Z,2184
2017-05-27T08:39:16.018Z,2176
2017-05-27T08:40:25.306Z,2192
2017-05-27T08:41:35.187Z,2192
2017-05-27T08:42:44.735Z,2196
2017-05-27T08:43:53.633Z,2208
2017-05-27T08:45:02.853Z,2224
2017-05-27T08:46:12.077Z,2232
2017-05-27T08:47:20.987Z,2232
2017-05-27T08:48:30.532Z,2248
2017-05-27T08:49:40.087Z,2252
2017-05-27T08:50:48.984Z,2268
2017-05-27T08:51:58.303Z,2272
2017-05-27T08:53:07.434Z,2272
2017-05-27T08:54:16.764Z,2284
2017-05-27T08:55:25.715Z,2296
2017-05-27T08:56:35.269Z,2304
2017-05-27T08:57:44.496Z,2304
2017-05-27T08:58:53.399Z,2308
2017-05-27T09:00:02.302Z,2304
2017-05-27T09:01:11.772Z,2304
2017-05-27T09:02:21.318Z,2324
2017-05-27T09:03:30.540Z,2344
2017-05-27T09:04:39.437Z,2352
2017-05-27T09:05:48.341Z,2344
2017-05-27T09:06:57.890Z,2384
2017-05-27T09:08:07.471Z,2384
2017-05-27T09:09:16.380Z,2384
2017-05-27T09:10:25.617Z,2368
2017-05-27T09:11:34.933Z,2356
2017-05-27T09:12:43.983Z,2380
2017-05-27T09:13:53.228Z,2444
2017-05-27T09:15:02.455Z,2436
2017-05-27T09:16:11.684Z,2488
2017-05-27T09:17:20.599Z,2476
2017-05-27T09:18:29.935Z,2524
2017-05-27T09:19:39.496Z,2484
2017-05-27T09:20:48.730Z,2472
2017-05-27T09:21:58.286Z,2496
2017-05-27T09:23:07.510Z,2496
2017-05-27T09:24:16.413Z,2516
2017-05-27T09:25:25.963Z,2528
2017-05-27T09:26:34.926Z,2528
2017-05-27T09:27:43.824Z,2504
2017-05-27T09:28:53.049Z,2488
2017-05-27T09:30:02.274Z,2508
2017-05-27T09:31:11.824Z,2564
2017-05-27T09:32:20.729Z,2628
2017-05-27T09:33:29.957Z,2616
2017-05-27T09:34:38.958Z,2596
2017-05-27T09:35:48.693Z,2592
2017-05-27T09:36:57.595Z,2616
2017-05-27T09:38:06.495Z,2644
2017-05-27T09:39:15.727Z,2664
2017-05-27T09:40:24.632Z,2648
2017-05-27T09:41:33.693Z,2680
2017-05-27T09:42:43.256Z,2676
2017-05-27T09:43:52.811Z,2672
2017-05-27T09:45:02.733Z,2636
2017-05-27T09:46:11.636Z,2660
2017-05-27T09:47:20.836Z,2720
2017-05-27T09:48:30.069Z,2760
2017-05-27T09:49:38.970Z,2728
2017-05-27T09:50:47.865Z,2756
2017-05-27T09:51:56.780Z,2720
2017-05-27T09:53:06.229Z,2708
2017-05-27T09:54:15.456Z,2744
2017-05-27T09:55:24.370Z,2768
2017-05-27T09:56:33.601Z,2776
2017-05-27T09:57:42.506Z,2828
2017-05-27T09:58:51.574Z,2832
2017-05-27T10:00:00.823Z,2796
2017-05-27T10:01:09.776Z,2724
2017-05-27T10:02:18.708Z,2736
2017-05-27T10:03:27.610Z,2696
2017-05-27T10:04:36.534Z,2612
2017-05-27T10:05:45.460Z,2692
2017-05-27T10:06:54.391Z,2744
2017-05-27T10:08:03.317Z,2764
2017-05-27T10:09:12.254Z,2812
2017-05-27T10:10:21.221Z,2852
2017-05-27T10:11:30.791Z,2836
2017-05-27T10:12:39.686Z,2840
2017-05-27T10:13:48.609Z,2824
2017-05-27T10:14:58.210Z,2852
2017-05-27T10:16:07.165Z,2860
2017-05-27T10:17:16.146Z,2904
2017-05-27T10:18:25.055Z,2892
2017-05-27T10:19:34.285Z,2856
2017-05-27T10:20:43.184Z,2788
2017-05-27T10:21:52.269Z,2760
2017-05-27T10:23:01.176Z,2792
2017-05-27T10:24:10.077Z,2800
2017-05-27T10:25:18.983Z,2812
2017-05-27T10:26:28.223Z,2848
2017-05-27T10:27:37.275Z,2892
2017-05-27T10:28:46.176Z,2916
2017-05-27T10:29:55.764Z,2912
2017-05-27T10:31:05.001Z,2920
2017-05-27T10:32:13.905Z,2960
2017-05-27T10:33:23.236Z,3020
2017-05-27T10:34:32.139Z,3040
2017-05-27T10:35:41.040Z,3048
2017-05-27T10:36:49.946Z,3100
2017-05-27T10:37:59.172Z,3140
2017-05-27T10:39:08.218Z,3112
2017-05-27T10:40:17.450Z,3260
2017-05-27T10:41:26.352Z,3276
2017-05-27T10:42:35.251Z,3248
2017-05-27T10:43:44.475Z,3272
2017-05-27T10:44:53.475Z,3340
2017-05-27T10:46:02.373Z,3340
2017-05-27T10:47:11.603Z,3388
2017-05-27T10:48:20.502Z,3432
2017-05-27T10:49:29.396Z,3452
2017-05-27T10:50:38.677Z,3436
2017-05-27T10:51:48.223Z,3412
2017-05-27T10:52:57.125Z,3472
2017-05-27T10:54:06.359Z,3600
2017-05-27T10:55:15.257Z,3644
2017-05-27T10:56:24.268Z,3632
2017-05-27T10:57:33.167Z,3628
2017-05-27T10:58:42.066Z,3640
2017-05-27T10:59:50.965Z,3724
2017-05-27T11:00:59.863Z,3704
2017-05-27T11:02:08.772Z,3660
2017-05-27T11:03:17.673Z,3720
2017-05-27T11:04:26.576Z,3768
2017-05-27T11:05:35.800Z,3872
2017-05-27T11:06:44.699Z,3912
2017-05-27T11:07:53.900Z,3868
2017-05-27T11:09:02.800Z,3884
2017-05-27T11:10:11.701Z,3912
2017-05-27T11:11:20.598Z,3924
2017-05-27T11:12:29.835Z,3924
2017-05-27T11:13:39.222Z,3932
2017-05-27T11:14:48.121Z,3876
2017-05-27T11:15:57.350Z,3908
2017-05-27T11:17:06.250Z,3932
2017-05-27T11:18:15.150Z,3928
2017-05-27T11:19:24.363Z,4024
2017-05-27T11:20:33.268Z,3972
2017-05-27T11:21:42.495Z,4028
2017-05-27T11:22:51.741Z,4080
2017-05-27T11:24:00.963Z,4204
2017-05-27T11:25:10.088Z,4260
2017-05-27T11:26:19.637Z,4240
2017-05-27T11:27:28.540Z,4196
2017-05-27T11:28:37.442Z,4176
2017-05-27T11:29:46.721Z,4300
2017-05-27T11:30:55.719Z,4272
2017-05-27T11:32:04.946Z,4304
2017-05-27T11:33:13.849Z,4404
2017-05-27T11:34:22.756Z,4476
2017-05-27T11:35:32.012Z,4552
2017-05-27T11:36:41.387Z,3832
2017-05-27T11:37:50.611Z,3876
2017-05-27T11:38:59.567Z,3892
2017-05-27T11:40:08.474Z,3876
2017-05-27T11:41:17.374Z,3888
2017-05-27T11:42:26.479Z,3996
2017-05-27T11:43:35.378Z,4088
2017-05-27T11:44:44.602Z,4232
2017-05-27T11:45:53.507Z,4320
2017-05-27T11:47:02.410Z,4464
2017-05-27T11:48:11.465Z,4824
2017-05-27T11:49:20.367Z,5128
2017-05-27T11:50:29.927Z,5504
2017-05-27T11:51:39.479Z,6692
2017-05-27T11:52:48.706Z,52672
2017-05-27T11:53:57.656Z,93920
2017-05-27T11:55:06.879Z,96992
2017-05-27T11:56:15.786Z,96512
2017-05-27T11:57:25.338Z,94976
2017-05-27T11:58:34.242Z,96832
2017-05-27T11:59:43.298Z,95136
2017-05-27T12:00:52.526Z,92096
2017-05-27T12:02:01.429Z,89408
2017-05-27T12:03:10.335Z,91936
2017-05-27T12:04:19.246Z,97664
2017-05-27T12:05:28.723Z,97952
2017-05-27T12:06:37.955Z,93088
2017-05-27T12:07:46.861Z,92512
2017-05-27T12:08:55.771Z,95072
2017-05-27T12:10:05.006Z,94912
2017-05-27T12:11:13.913Z,101344
2017-05-27T12:12:23.158Z,107392
2017-05-27T12:13:32.392Z,104320
2017-05-27T12:14:41.714Z,98208
2017-05-27T12:15:50.947Z,101760
2017-05-27T12:17:00.506Z,97568
2017-05-27T12:18:09.412Z,105664
2017-05-27T12:19:18.644Z,109056
2017-05-27T12:20:27.554Z,98080
2017-05-27T12:21:36.468Z,92352
2017-05-27T12:22:45.479Z,92032
2017-05-27T12:23:54.392Z,91872
2017-05-27T12:25:03.300Z,97728
2017-05-27T12:26:12.217Z,97664
2017-05-27T12:27:21.126Z,102656
2017-05-27T12:28:30.039Z,101344
2017-05-27T12:29:38.954Z,92000
2017-05-27T12:30:47.865Z,78016
2017-05-27T12:31:56.776Z,69312
2017-05-27T12:33:05.693Z,70304
2017-05-27T12:34:14.754Z,67136
2017-05-27T12:35:23.674Z,54272
2017-05-27T12:36:32.585Z,43136
2017-05-27T12:37:41.499Z,44256
2017-05-27T12:38:50.738Z,48736
2017-05-27T12:39:59.748Z,53728
2017-05-27T12:41:08.986Z,69024
2017-05-27T12:42:18.547Z,74336
2017-05-27T12:43:27.458Z,81728
2017-05-27T12:44:36.391Z,99424
2017-05-27T12:45:45.556Z,102496
2017-05-27T12:46:55.127Z,104480
2017-05-27T12:48:04.037Z,107648
2017-05-27T12:49:13.326Z,104000
2017-05-27T12:50:22.887Z,107264
2017-05-27T12:51:31.903Z,110112
2017-05-27T12:52:41.153Z,106176
2017-05-27T12:53:50.390Z,100288
2017-05-27T12:54:59.302Z,99808
2017-05-27T12:56:08.548Z,93280
2017-05-27T12:57:17.610Z,97248
2017-05-27T12:58:26.528Z,107136
2017-05-27T12:59:35.462Z,102656
2017-05-27T13:00:44.411Z,92992
2017-05-27T13:01:53.327Z,85408
2017-05-27T13:03:02.576Z,93888
2017-05-27T13:04:11.491Z,98080
2017-05-27T13:05:20.405Z,93504
2017-05-27T13:06:29.322Z,91968
2017-05-27T13:07:38.278Z,96128
2017-05-27T13:08:47.623Z,96928
2017-05-27T13:09:56.542Z,91040
2017-05-27T13:11:05.462Z,88736
2017-05-27T13:12:14.378Z,89312
2017-05-27T13:13:23.619Z,93792
2017-05-27T13:14:32.685Z,96384
2017-05-27T13:15:41.938Z,94432
2017-05-27T13:16:51.501Z,96224
2017-05-27T13:18:00.743Z,103296
2017-05-27T13:19:09.656Z,97024
2017-05-27T13:20:19.470Z,96448
2017-05-27T13:21:28.711Z,91104
2017-05-27T13:22:37.629Z,88800
2017-05-27T13:23:46.549Z,94880
2017-05-27T13:24:55.468Z,97024
2017-05-27T13:26:04.385Z,94848
2017-05-27T13:27:13.625Z,90592
2017-05-27T13:28:22.541Z,88384
2017-05-27T13:29:31.466Z,91200
2017-05-27T13:30:40.707Z,95040
2017-05-27T13:31:50.330Z,95104
2017-05-27T13:32:59.247Z,87488
2017-05-27T13:34:08.817Z,92768
2017-05-27T13:35:18.060Z,94432
2017-05-27T13:36:27.301Z,94688
2017-05-27T13:37:36.368Z,94688
2017-05-27T13:38:45.607Z,92512
2017-05-27T13:39:54.525Z,95584
2017-05-27T13:41:03.766Z,95968
2017-05-27T13:42:12.681Z,91392
2017-05-27T13:43:21.651Z,92704
2017-05-27T13:44:30.576Z,97216
2017-05-27T13:45:39.821Z,94880
2017-05-27T13:46:48.740Z,90496
2017-05-27T13:47:58.306Z,90784
2017-05-27T13:49:07.708Z,91968
2017-05-27T13:50:16.627Z,88000
2017-05-27T13:51:25.873Z,86688
2017-05-27T13:52:34.795Z,89984
2017-05-27T13:53:43.712Z,88864
2017-05-27T13:54:52.785Z,88192
2017-05-27T13:56:02.036Z,86464
2017-05-27T13:57:11.283Z,90624
2017-05-27T13:58:20.201Z,97920
2017-05-27T13:59:29.120Z,96608
2017-05-27T14:00:38.516Z,91840
2017-05-27T14:01:47.434Z,92768
2017-05-27T14:02:56.353Z,98272
2017-05-27T14:04:05.270Z,97024
2017-05-27T14:05:14.190Z,95200
2017-05-27T14:06:23.547Z,94848
2017-05-27T14:07:32.471Z,93664
2017-05-27T14:08:41.716Z,95008
2017-05-27T14:09:50.960Z,90784
2017-05-27T14:10:59.884Z,90304
2017-05-27T14:12:09.606Z,89536
2017-05-27T14:13:18.917Z,88640
2017-05-27T14:14:27.837Z,91744
2017-05-27T14:15:37.086Z,92512
2017-05-27T14:16:46.329Z,95296
2017-05-27T14:17:55.909Z,97056
2017-05-27T14:19:05.159Z,97728
2017-05-27T14:20:14.083Z,99424
2017-05-27T14:21:23.338Z,99392
2017-05-27T14:22:32.964Z,98016
2017-05-27T14:23:42.317Z,96032
2017-05-27T14:24:51.893Z,91488
2017-05-27T14:26:01.459Z,88672
2017-05-27T14:27:10.386Z,89728
2017-05-27T14:28:19.955Z,89920
2017-05-27T14:29:29.027Z,93568
2017-05-27T14:30:38.274Z,94528
2017-05-27T14:31:47.523Z,92640
2017-05-27T14:32:56.440Z,89216
2017-05-27T14:34:05.359Z,87936
2017-05-27T14:35:14.757Z,86528
2017-05-27T14:36:23.673Z,87648
2017-05-27T14:37:32.597Z,90304
2017-05-27T14:38:41.850Z,88288
2017-05-27T14:39:50.773Z,84096
2017-05-27T14:41:00.167Z,84256
2017-05-27T14:42:09.416Z,83968
2017-05-27T14:43:18.350Z,86816
2017-05-27T14:44:27.597Z,90048
2017-05-27T14:45:36.527Z,91776
2017-05-27T14:46:45.504Z,90336
2017-05-27T14:47:55.398Z,90048
2017-05-27T14:49:04.646Z,86304
2017-05-27T14:50:13.573Z,88704
2017-05-27T14:51:22.868Z,87968
2017-05-27T14:52:31.839Z,87424
2017-05-27T14:53:41.089Z,86656
2017-05-27T14:54:50.661Z,87776
2017-05-27T14:55:59.907Z,88256
2017-05-27T14:57:08.832Z,87872
2017-05-27T14:58:18.552Z,85792
2017-05-27T14:59:27.802Z,84672
2017-05-27T15:00:36.729Z,80768
2017-05-27T15:01:45.974Z,78208
2017-05-27T15:02:55.229Z,78944
2017-05-27T15:04:05.128Z,80736
2017-05-27T15:05:14.107Z,77632
2017-05-27T15:06:23.031Z,77312
2017-05-27T15:07:32.603Z,76928
2017-05-27T15:08:41.856Z,74624
2017-05-27T15:09:51.161Z,75680
2017-05-27T15:11:00.407Z,78080
2017-05-27T15:12:09.333Z,77536
2017-05-27T15:13:18.253Z,74688
2017-05-27T15:14:27.501Z,73792
2017-05-27T15:15:36.750Z,75744
2017-05-27T15:16:45.671Z,76096
2017-05-27T15:17:54.913Z,76224
2017-05-27T15:19:04.160Z,74848
2017-05-27T15:20:13.077Z,73728
2017-05-27T15:21:22.155Z,71552
2017-05-27T15:22:31.396Z,72352
2017-05-27T15:23:40.638Z,73184
2017-05-27T15:24:50.244Z,72416
2017-05-27T15:25:59.163Z,70848
2017-05-27T15:27:08.186Z,68096
2017-05-27T15:28:17.430Z,66272
2017-05-27T15:29:26.352Z,67904
2017-05-27T15:30:35.599Z,67392
2017-05-27T15:31:44.839Z,62176
2017-05-27T15:32:53.806Z,59328
2017-05-27T15:34:03.115Z,58688